sensor_id;sensor_type;location;lat;lon;timestamp;P1;durP1;ratioP1;P2;durP2;ratioP2
38529;SDS011;24301;54.332;48.386;2022-12-20T00:00:13;9.47;;;4.50;;
38529;SDS011;24301;54.332;48.386;2022-12-20T00:02:39;7.13;;;4.63;;
38529;SDS011;24301;54.332;48.386;2022-12-20T00:05:05;11.73;;;5.33;;
38529;SDS011;24301;54.332;48.386;2022-12-20T00:07:31;10.10;;;5.13;;
38529;SDS011;24301;54.332;48.386;2022-12-20T00:09:57;8.03;;;4.27;;
38529;SDS011;24301;54.332;48.386;2022-12-20T00:12:23;9.57;;;5.13;;
38529;SDS011;24301;54.332;48.386;2022-12-20T00:14:49;9.33;;;4.43;;
38529;SDS011;24301;54.332;48.386;2022-12-20T00:17:15;10.97;;;5.50;;
38529;SDS011;24301;54.332;48.386;2022-12-20T00:19:42;12.43;;;4.57;;
38529;SDS011;24301;54.332;48.386;2022-12-20T00:22:09;8.03;;;4.10;;
38529;SDS011;24301;54.332;48.386;2022-12-20T00:24:35;8.83;;;3.87;;
38529;SDS011;24301;54.332;48.386;2022-12-20T00:27:01;9.87;;;4.60;;
38529;SDS011;24301;54.332;48.386;2022-12-20T00:29:28;10.20;;;5.53;;
38529;SDS011;24301;54.332;48.386;2022-12-20T00:31:54;10.77;;;6.30;;
38529;SDS011;24301;54.332;48.386;2022-12-20T00:34:21;10.93;;;4.70;;
38529;SDS011;24301;54.332;48.386;2022-12-20T00:36:47;10.27;;;4.97;;
38529;SDS011;24301;54.332;48.386;2022-12-20T00:39:13;13.03;;;4.70;;
38529;SDS011;24301;54.332;48.386;2022-12-20T00:41:39;12.63;;;5.70;;
38529;SDS011;24301;54.332;48.386;2022-12-20T00:44:05;10.20;;;5.13;;
38529;SDS011;24301;54.332;48.386;2022-12-20T00:46:31;10.53;;;5.37;;
38529;SDS011;24301;54.332;48.386;2022-12-20T00:48:58;7.37;;;4.47;;
38529;SDS011;24301;54.332;48.386;2022-12-20T00:51:25;12.17;;;5.10;;
38529;SDS011;24301;54.332;48.386;2022-12-20T00:53:53;10.10;;;5.70;;
38529;SDS011;24301;54.332;48.386;2022-12-20T00:56:20;13.00;;;5.00;;
38529;SDS011;24301;54.332;48.386;2022-12-20T00:58:47;11.17;;;5.73;;
38529;SDS011;24301;54.332;48.386;2022-12-20T01:01:20;10.40;;;5.13;;
38529;SDS011;24301;54.332;48.386;2022-12-20T01:03:49;11.57;;;5.10;;
38529;SDS011;24301;54.332;48.386;2022-12-20T01:06:16;11.10;;;5.43;;
38529;SDS011;24301;54.332;48.386;2022-12-20T01:08:42;12.30;;;5.57;;
38529;SDS011;24301;54.332;48.386;2022-12-20T01:11:13;8.70;;;4.80;;
38529;SDS011;24301;54.332;48.386;2022-12-20T01:13:45;10.87;;;5.47;;
38529;SDS011;24301;54.332;48.386;2022-12-20T01:16:18;8.37;;;4.47;;
38529;SDS011;24301;54.332;48.386;2022-12-20T01:21:13;7.17;;;4.73;;
38529;SDS011;24301;54.332;48.386;2022-12-20T01:23:40;9.67;;;5.23;;
38529;SDS011;24301;54.332;48.386;2022-12-20T01:26:07;11.30;;;5.10;;
38529;SDS011;24301;54.332;48.386;2022-12-20T01:28:37;10.17;;;4.87;;
38529;SDS011;24301;54.332;48.386;2022-12-20T01:31:11;8.23;;;4.33;;
38529;SDS011;24301;54.332;48.386;2022-12-20T01:33:39;10.17;;;4.77;;
38529;SDS011;24301;54.332;48.386;2022-12-20T01:36:06;11.17;;;4.93;;
38529;SDS011;24301;54.332;48.386;2022-12-20T01:38:39;11.07;;;5.23;;
38529;SDS011;24301;54.332;48.386;2022-12-20T01:41:05;17.37;;;6.10;;
38529;SDS011;24301;54.332;48.386;2022-12-20T01:46:42;15.67;;;7.00;;
38529;SDS011;24301;54.332;48.386;2022-12-20T01:52:21;24.40;;;8.50;;
38529;SDS011;24301;54.332;48.386;2022-12-20T01:58:01;20.83;;;8.77;;
38529;SDS011;24301;54.332;48.386;2022-12-20T02:00:30;20.53;;;8.13;;
38529;SDS011;24301;54.332;48.386;2022-12-20T02:03:00;19.33;;;7.20;;
38529;SDS011;24301;54.332;48.386;2022-12-20T02:05:38;16.33;;;8.02;;
38529;SDS011;24301;54.332;48.386;2022-12-20T02:08:05;18.77;;;8.67;;
38529;SDS011;24301;54.332;48.386;2022-12-20T02:13:49;20.63;;;9.87;;
38529;SDS011;24301;54.332;48.386;2022-12-20T02:16:43;24.50;;;9.67;;
38529;SDS011;24301;54.332;48.386;2022-12-20T02:22:35;24.52;;;9.25;;
38529;SDS011;24301;54.332;48.386;2022-12-20T02:30:34;20.43;;;8.90;;
38529;SDS011;24301;54.332;48.386;2022-12-20T02:33:06;22.43;;;9.20;;
38529;SDS011;24301;54.332;48.386;2022-12-20T02:35:36;33.37;;;11.77;;
38529;SDS011;24301;54.332;48.386;2022-12-20T02:38:27;24.77;;;10.23;;
38529;SDS011;24301;54.332;48.386;2022-12-20T02:41:06;32.10;;;10.77;;
38529;SDS011;24301;54.332;48.386;2022-12-20T02:43:37;29.90;;;11.80;;
38529;SDS011;24301;54.332;48.386;2022-12-20T02:46:25;28.20;;;10.77;;
38529;SDS011;24301;54.332;48.386;2022-12-20T02:48:53;28.43;;;11.60;;
38529;SDS011;24301;54.332;48.386;2022-12-20T02:51:22;28.47;;;11.80;;
38529;SDS011;24301;54.332;48.386;2022-12-20T02:53:54;27.00;;;9.87;;
38529;SDS011;24301;54.332;48.386;2022-12-20T02:56:24;24.87;;;9.77;;
38529;SDS011;24301;54.332;48.386;2022-12-20T02:59:00;27.13;;;9.47;;
38529;SDS011;24301;54.332;48.386;2022-12-20T03:01:35;25.17;;;10.00;;
38529;SDS011;24301;54.332;48.386;2022-12-20T03:04:31;20.23;;;8.50;;
38529;SDS011;24301;54.332;48.386;2022-12-20T03:07:02;17.27;;;7.23;;
38529;SDS011;24301;54.332;48.386;2022-12-20T03:09:31;16.50;;;7.70;;
38529;SDS011;24301;54.332;48.386;2022-12-20T03:11:59;20.37;;;9.90;;
38529;SDS011;24301;54.332;48.386;2022-12-20T03:14:26;18.60;;;7.07;;
38529;SDS011;24301;54.332;48.386;2022-12-20T03:16:55;19.93;;;9.33;;
38529;SDS011;24301;54.332;48.386;2022-12-20T03:19:21;19.60;;;7.93;;
38529;SDS011;24301;54.332;48.386;2022-12-20T03:21:47;19.47;;;8.33;;
38529;SDS011;24301;54.332;48.386;2022-12-20T03:24:13;20.70;;;7.93;;
38529;SDS011;24301;54.332;48.386;2022-12-20T03:26:39;14.60;;;7.63;;
38529;SDS011;24301;54.332;48.386;2022-12-20T03:29:05;20.13;;;7.73;;
38529;SDS011;24301;54.332;48.386;2022-12-20T03:31:31;17.17;;;7.20;;
38529;SDS011;24301;54.332;48.386;2022-12-20T03:33:58;17.57;;;8.47;;
38529;SDS011;24301;54.332;48.386;2022-12-20T03:36:24;20.30;;;8.30;;
38529;SDS011;24301;54.332;48.386;2022-12-20T03:38:54;20.90;;;7.87;;
38529;SDS011;24301;54.332;48.386;2022-12-20T03:41:22;18.20;;;8.63;;
38529;SDS011;24301;54.332;48.386;2022-12-20T03:43:49;17.90;;;7.23;;
38529;SDS011;24301;54.332;48.386;2022-12-20T03:46:15;18.17;;;6.83;;
38529;SDS011;24301;54.332;48.386;2022-12-20T03:48:42;16.23;;;6.80;;
38529;SDS011;24301;54.332;48.386;2022-12-20T03:51:08;21.47;;;8.17;;
38529;SDS011;24301;54.332;48.386;2022-12-20T03:53:34;21.53;;;8.57;;
38529;SDS011;24301;54.332;48.386;2022-12-20T03:56:01;18.10;;;9.60;;
38529;SDS011;24301;54.332;48.386;2022-12-20T03:58:27;22.70;;;10.07;;
38529;SDS011;24301;54.332;48.386;2022-12-20T04:00:53;24.57;;;13.63;;
38529;SDS011;24301;54.332;48.386;2022-12-20T04:03:40;22.87;;;11.50;;
38529;SDS011;24301;54.332;48.386;2022-12-20T04:06:06;23.67;;;10.77;;
38529;SDS011;24301;54.332;48.386;2022-12-20T04:08:32;35.93;;;12.53;;
38529;SDS011;24301;54.332;48.386;2022-12-20T04:10:58;35.50;;;11.23;;
38529;SDS011;24301;54.332;48.386;2022-12-20T04:13:54;24.73;;;11.40;;
38529;SDS011;24301;54.332;48.386;2022-12-20T04:16:21;31.90;;;11.07;;
38529;SDS011;24301;54.332;48.386;2022-12-20T04:18:51;22.27;;;9.17;;
38529;SDS011;24301;54.332;48.386;2022-12-20T04:21:24;23.27;;;9.43;;
38529;SDS011;24301;54.332;48.386;2022-12-20T04:23:55;23.00;;;10.20;;
38529;SDS011;24301;54.332;48.386;2022-12-20T04:26:24;20.20;;;8.60;;
38529;SDS011;24301;54.332;48.386;2022-12-20T04:28:51;18.20;;;8.20;;
38529;SDS011;24301;54.332;48.386;2022-12-20T04:31:17;20.73;;;8.40;;
38529;SDS011;24301;54.332;48.386;2022-12-20T04:33:44;19.27;;;8.70;;
38529;SDS011;24301;54.332;48.386;2022-12-20T04:36:11;22.33;;;8.83;;
38529;SDS011;24301;54.332;48.386;2022-12-20T04:38:38;22.53;;;9.57;;
38529;SDS011;24301;54.332;48.386;2022-12-20T04:41:04;23.37;;;9.23;;
38529;SDS011;24301;54.332;48.386;2022-12-20T04:43:41;25.30;;;12.40;;
38529;SDS011;24301;54.332;48.386;2022-12-20T04:46:07;25.77;;;11.53;;
38529;SDS011;24301;54.332;48.386;2022-12-20T04:48:33;29.43;;;11.40;;
38529;SDS011;24301;54.332;48.386;2022-12-20T04:50:59;25.43;;;12.93;;
38529;SDS011;24301;54.332;48.386;2022-12-20T04:53:26;27.13;;;10.83;;
38529;SDS011;24301;54.332;48.386;2022-12-20T04:56:10;24.10;;;11.17;;
38529;SDS011;24301;54.332;48.386;2022-12-20T04:58:36;27.30;;;11.77;;
38529;SDS011;24301;54.332;48.386;2022-12-20T05:01:06;30.53;;;11.87;;
38529;SDS011;24301;54.332;48.386;2022-12-20T05:03:40;30.17;;;11.47;;
38529;SDS011;24301;54.332;48.386;2022-12-20T05:06:06;27.17;;;13.10;;
38529;SDS011;24301;54.332;48.386;2022-12-20T05:08:33;23.87;;;11.30;;
38529;SDS011;24301;54.332;48.386;2022-12-20T05:11:00;29.47;;;12.40;;
38529;SDS011;24301;54.332;48.386;2022-12-20T05:13:27;26.00;;;11.30;;
38529;SDS011;24301;54.332;48.386;2022-12-20T05:15:53;33.70;;;13.80;;
38529;SDS011;24301;54.332;48.386;2022-12-20T05:18:24;27.43;;;12.07;;
38529;SDS011;24301;54.332;48.386;2022-12-20T05:20:59;29.37;;;11.57;;
38529;SDS011;24301;54.332;48.386;2022-12-20T05:23:47;25.33;;;10.63;;
38529;SDS011;24301;54.332;48.386;2022-12-20T05:26:44;29.67;;;10.57;;
38529;SDS011;24301;54.332;48.386;2022-12-20T05:29:10;22.53;;;10.50;;
38529;SDS011;24301;54.332;48.386;2022-12-20T05:31:36;20.40;;;11.20;;
38529;SDS011;24301;54.332;48.386;2022-12-20T05:34:02;20.03;;;10.33;;
38529;SDS011;24301;54.332;48.386;2022-12-20T05:36:31;21.97;;;11.97;;
38529;SDS011;24301;54.332;48.386;2022-12-20T05:39:00;20.07;;;9.13;;
38529;SDS011;24301;54.332;48.386;2022-12-20T05:41:26;25.43;;;10.73;;
38529;SDS011;24301;54.332;48.386;2022-12-20T05:43:52;18.07;;;9.87;;
38529;SDS011;24301;54.332;48.386;2022-12-20T05:46:18;27.20;;;12.87;;
38529;SDS011;24301;54.332;48.386;2022-12-20T05:48:52;23.17;;;10.73;;
38529;SDS011;24301;54.332;48.386;2022-12-20T05:51:18;19.87;;;9.43;;
38529;SDS011;24301;54.332;48.386;2022-12-20T05:53:53;22.77;;;10.10;;
38529;SDS011;24301;54.332;48.386;2022-12-20T05:56:27;20.40;;;9.90;;
38529;SDS011;24301;54.332;48.386;2022-12-20T05:58:53;26.37;;;11.50;;
38529;SDS011;24301;54.332;48.386;2022-12-20T06:01:19;24.40;;;11.70;;
38529;SDS011;24301;54.332;48.386;2022-12-20T06:03:45;31.10;;;14.13;;
38529;SDS011;24301;54.332;48.386;2022-12-20T06:06:14;34.27;;;14.10;;
38529;SDS011;24301;54.332;48.386;2022-12-20T06:08:40;30.23;;;14.90;;
38529;SDS011;24301;54.332;48.386;2022-12-20T06:11:12;36.10;;;16.07;;
38529;SDS011;24301;54.332;48.386;2022-12-20T06:13:47;31.43;;;13.13;;
38529;SDS011;24301;54.332;48.386;2022-12-20T06:16:14;31.77;;;12.93;;
38529;SDS011;24301;54.332;48.386;2022-12-20T06:18:39;29.77;;;12.87;;
38529;SDS011;24301;54.332;48.386;2022-12-20T06:21:06;32.57;;;12.63;;
38529;SDS011;24301;54.332;48.386;2022-12-20T06:23:32;25.93;;;11.77;;
38529;SDS011;24301;54.332;48.386;2022-12-20T06:26:04;24.43;;;11.97;;
38529;SDS011;24301;54.332;48.386;2022-12-20T06:28:35;26.43;;;12.43;;
38529;SDS011;24301;54.332;48.386;2022-12-20T06:31:07;28.40;;;12.87;;
38529;SDS011;24301;54.332;48.386;2022-12-20T06:33:41;24.83;;;11.13;;
38529;SDS011;24301;54.332;48.386;2022-12-20T06:36:07;22.80;;;10.73;;
38529;SDS011;24301;54.332;48.386;2022-12-20T06:38:33;24.10;;;11.37;;
38529;SDS011;24301;54.332;48.386;2022-12-20T06:40:59;22.13;;;9.97;;
38529;SDS011;24301;54.332;48.386;2022-12-20T06:43:25;17.90;;;9.27;;
38529;SDS011;24301;54.332;48.386;2022-12-20T06:45:51;18.80;;;10.27;;
38529;SDS011;24301;54.332;48.386;2022-12-20T06:48:17;20.37;;;10.03;;
38529;SDS011;24301;54.332;48.386;2022-12-20T06:50:47;28.57;;;12.67;;
38529;SDS011;24301;54.332;48.386;2022-12-20T06:53:14;19.87;;;10.10;;
38529;SDS011;24301;54.332;48.386;2022-12-20T06:55:40;27.13;;;10.93;;
38529;SDS011;24301;54.332;48.386;2022-12-20T06:58:06;26.83;;;12.53;;
38529;SDS011;24301;54.332;48.386;2022-12-20T07:00:32;26.10;;;13.50;;
38529;SDS011;24301;54.332;48.386;2022-12-20T07:02:58;24.37;;;12.27;;
38529;SDS011;24301;54.332;48.386;2022-12-20T07:05:24;27.53;;;12.70;;
38529;SDS011;24301;54.332;48.386;2022-12-20T07:07:50;26.80;;;13.90;;
38529;SDS011;24301;54.332;48.386;2022-12-20T07:10:16;22.77;;;11.77;;
38529;SDS011;24301;54.332;48.386;2022-12-20T07:12:42;26.40;;;11.37;;
38529;SDS011;24301;54.332;48.386;2022-12-20T07:15:08;26.43;;;12.30;;
38529;SDS011;24301;54.332;48.386;2022-12-20T07:17:34;25.13;;;12.53;;
38529;SDS011;24301;54.332;48.386;2022-12-20T07:20:00;28.03;;;13.80;;
38529;SDS011;24301;54.332;48.386;2022-12-20T07:22:26;25.93;;;13.27;;
38529;SDS011;24301;54.332;48.386;2022-12-20T07:24:51;23.73;;;11.97;;
38529;SDS011;24301;54.332;48.386;2022-12-20T07:27:17;25.70;;;11.87;;
38529;SDS011;24301;54.332;48.386;2022-12-20T07:29:43;28.20;;;12.77;;
38529;SDS011;24301;54.332;48.386;2022-12-20T07:32:10;27.77;;;15.37;;
38529;SDS011;24301;54.332;48.386;2022-12-20T07:34:37;24.13;;;12.07;;
38529;SDS011;24301;54.332;48.386;2022-12-20T07:37:03;24.57;;;12.57;;
38529;SDS011;24301;54.332;48.386;2022-12-20T07:39:29;24.43;;;13.50;;
38529;SDS011;24301;54.332;48.386;2022-12-20T07:41:55;24.23;;;12.60;;
38529;SDS011;24301;54.332;48.386;2022-12-20T07:44:22;26.57;;;13.33;;
38529;SDS011;24301;54.332;48.386;2022-12-20T07:46:48;24.60;;;14.87;;
38529;SDS011;24301;54.332;48.386;2022-12-20T07:49:14;20.77;;;11.23;;
38529;SDS011;24301;54.332;48.386;2022-12-20T07:51:41;22.80;;;11.87;;
38529;SDS011;24301;54.332;48.386;2022-12-20T07:54:14;23.77;;;11.50;;
38529;SDS011;24301;54.332;48.386;2022-12-20T07:56:46;22.67;;;10.93;;
38529;SDS011;24301;54.332;48.386;2022-12-20T07:59:20;22.23;;;10.98;;
38529;SDS011;24301;54.332;48.386;2022-12-20T08:01:59;23.93;;;12.73;;
38529;SDS011;24301;54.332;48.386;2022-12-20T08:04:25;18.97;;;9.33;;
38529;SDS011;24301;54.332;48.386;2022-12-20T08:06:54;23.90;;;10.93;;
38529;SDS011;24301;54.332;48.386;2022-12-20T08:09:23;21.90;;;10.43;;
38529;SDS011;24301;54.332;48.386;2022-12-20T08:11:51;22.77;;;11.47;;
38529;SDS011;24301;54.332;48.386;2022-12-20T08:14:17;21.00;;;10.70;;
38529;SDS011;24301;54.332;48.386;2022-12-20T08:16:44;18.33;;;9.60;;
38529;SDS011;24301;54.332;48.386;2022-12-20T08:19:10;22.73;;;11.00;;
38529;SDS011;24301;54.332;48.386;2022-12-20T08:21:37;20.97;;;11.00;;
38529;SDS011;24301;54.332;48.386;2022-12-20T08:24:03;21.93;;;11.03;;
38529;SDS011;24301;54.332;48.386;2022-12-20T08:26:29;26.13;;;11.40;;
38529;SDS011;24301;54.332;48.386;2022-12-20T08:28:55;21.53;;;10.80;;
38529;SDS011;24301;54.332;48.386;2022-12-20T08:31:21;20.50;;;12.03;;
38529;SDS011;24301;54.332;48.386;2022-12-20T08:33:47;24.17;;;12.00;;
38529;SDS011;24301;54.332;48.386;2022-12-20T08:36:14;20.23;;;11.80;;
38529;SDS011;24301;54.332;48.386;2022-12-20T08:38:40;19.60;;;11.10;;
38529;SDS011;24301;54.332;48.386;2022-12-20T08:41:07;22.97;;;11.70;;
38529;SDS011;24301;54.332;48.386;2022-12-20T08:43:35;21.20;;;11.50;;
38529;SDS011;24301;54.332;48.386;2022-12-20T08:46:01;21.70;;;11.30;;
38529;SDS011;24301;54.332;48.386;2022-12-20T08:48:28;19.40;;;10.30;;
38529;SDS011;24301;54.332;48.386;2022-12-20T08:50:58;21.40;;;10.67;;
38529;SDS011;24301;54.332;48.386;2022-12-20T08:53:26;20.27;;;11.57;;
38529;SDS011;24301;54.332;48.386;2022-12-20T08:55:53;17.53;;;9.37;;
38529;SDS011;24301;54.332;48.386;2022-12-20T08:58:38;15.52;;;9.05;;
38529;SDS011;24301;54.332;48.386;2022-12-20T09:01:05;14.00;;;8.50;;
38529;SDS011;24301;54.332;48.386;2022-12-20T09:03:33;18.50;;;9.77;;
38529;SDS011;24301;54.332;48.386;2022-12-20T09:06:00;19.27;;;10.33;;
38529;SDS011;24301;54.332;48.386;2022-12-20T09:08:31;19.70;;;10.33;;
38529;SDS011;24301;54.332;48.386;2022-12-20T09:11:02;21.30;;;12.17;;
38529;SDS011;24301;54.332;48.386;2022-12-20T09:13:46;21.83;;;10.90;;
38529;SDS011;24301;54.332;48.386;2022-12-20T09:16:15;18.83;;;10.60;;
38529;SDS011;24301;54.332;48.386;2022-12-20T09:18:42;20.17;;;10.80;;
38529;SDS011;24301;54.332;48.386;2022-12-20T09:21:09;18.70;;;10.00;;
38529;SDS011;24301;54.332;48.386;2022-12-20T09:23:36;17.50;;;9.77;;
38529;SDS011;24301;54.332;48.386;2022-12-20T09:26:06;20.83;;;12.67;;
38529;SDS011;24301;54.332;48.386;2022-12-20T09:28:36;22.40;;;10.73;;
38529;SDS011;24301;54.332;48.386;2022-12-20T09:31:03;19.13;;;10.60;;
38529;SDS011;24301;54.332;48.386;2022-12-20T09:33:31;18.87;;;11.27;;
38529;SDS011;24301;54.332;48.386;2022-12-20T09:35:58;20.77;;;10.93;;
38529;SDS011;24301;54.332;48.386;2022-12-20T09:38:25;18.37;;;11.00;;
38529;SDS011;24301;54.332;48.386;2022-12-20T09:40:53;20.10;;;11.13;;
38529;SDS011;24301;54.332;48.386;2022-12-20T09:43:30;20.07;;;11.23;;
38529;SDS011;24301;54.332;48.386;2022-12-20T09:45:59;25.17;;;12.37;;
38529;SDS011;24301;54.332;48.386;2022-12-20T09:53:47;21.80;;;11.23;;
38529;SDS011;24301;54.332;48.386;2022-12-20T09:56:29;26.77;;;12.90;;
38529;SDS011;24301;54.332;48.386;2022-12-20T09:59:20;26.87;;;12.53;;
38529;SDS011;24301;54.332;48.386;2022-12-20T10:01:47;23.87;;;12.03;;
38529;SDS011;24301;54.332;48.386;2022-12-20T10:04:35;23.23;;;13.13;;
38529;SDS011;24301;54.332;48.386;2022-12-20T10:13:47;26.70;;;14.40;;
38529;SDS011;24301;54.332;48.386;2022-12-20T10:15:53;22.13;;;12.07;;
38529;SDS011;24301;54.332;48.386;2022-12-20T10:24:35;27.23;;;14.03;;
38529;SDS011;24301;54.332;48.386;2022-12-20T10:27:13;25.80;;;14.10;;
38529;SDS011;24301;54.332;48.386;2022-12-20T10:29:42;19.80;;;11.87;;
38529;SDS011;24301;54.332;48.386;2022-12-20T10:32:13;24.80;;;12.60;;
38529;SDS011;24301;54.332;48.386;2022-12-20T10:35:33;26.10;;;13.10;;
38529;SDS011;24301;54.332;48.386;2022-12-20T10:37:55;21.40;;;12.77;;
38529;SDS011;24301;54.332;48.386;2022-12-20T10:40:27;23.90;;;14.77;;
38529;SDS011;24301;54.332;48.386;2022-12-20T10:42:57;21.80;;;11.87;;
38529;SDS011;24301;54.332;48.386;2022-12-20T10:45:34;21.93;;;11.40;;
38529;SDS011;24301;54.332;48.386;2022-12-20T10:48:04;22.03;;;12.70;;
38529;SDS011;24301;54.332;48.386;2022-12-20T10:53:55;21.30;;;10.40;;
38529;SDS011;24301;54.332;48.386;2022-12-20T10:58:52;20.13;;;10.40;;
38529;SDS011;24301;54.332;48.386;2022-12-20T11:01:21;20.60;;;11.83;;
38529;SDS011;24301;54.332;48.386;2022-12-20T11:03:51;25.67;;;12.63;;
38529;SDS011;24301;54.332;48.386;2022-12-20T11:06:20;25.27;;;13.87;;
38529;SDS011;24301;54.332;48.386;2022-12-20T11:08:47;27.90;;;14.83;;
38529;SDS011;24301;54.332;48.386;2022-12-20T11:11:15;25.63;;;14.20;;
38529;SDS011;24301;54.332;48.386;2022-12-20T11:13:42;29.67;;;14.73;;
38529;SDS011;24301;54.332;48.386;2022-12-20T11:21:53;26.30;;;13.73;;
38529;SDS011;24301;54.332;48.386;2022-12-20T11:24:32;24.73;;;12.73;;
38529;SDS011;24301;54.332;48.386;2022-12-20T11:48:34;24.10;;;13.50;;
38529;SDS011;24301;54.332;48.386;2022-12-20T11:51:25;24.77;;;12.95;;
38529;SDS011;24301;54.332;48.386;2022-12-20T11:54:08;20.77;;;11.37;;
38529;SDS011;24301;54.332;48.386;2022-12-20T11:56:40;26.97;;;12.37;;
38529;SDS011;24301;54.332;48.386;2022-12-20T11:59:14;21.07;;;11.73;;
38529;SDS011;24301;54.332;48.386;2022-12-20T12:02:09;16.93;;;9.93;;
38529;SDS011;24301;54.332;48.386;2022-12-20T12:04:40;18.57;;;10.77;;
38529;SDS011;24301;54.332;48.386;2022-12-20T12:07:13;21.05;;;11.15;;
38529;SDS011;24301;54.332;48.386;2022-12-20T12:10:03;20.37;;;10.70;;
38529;SDS011;24301;54.332;48.386;2022-12-20T12:12:43;19.90;;;11.07;;
38529;SDS011;24301;54.332;48.386;2022-12-20T12:15:20;24.60;;;13.27;;
38529;SDS011;24301;54.332;48.386;2022-12-20T12:20:47;23.43;;;14.00;;
38529;SDS011;24301;54.332;48.386;2022-12-20T12:26:23;23.03;;;11.30;;
38529;SDS011;24301;54.332;48.386;2022-12-20T12:28:55;19.87;;;10.73;;
38529;SDS011;24301;54.332;48.386;2022-12-20T12:40:04;21.40;;;9.97;;
38529;SDS011;24301;54.332;48.386;2022-12-20T12:45:15;17.77;;;10.90;;
38529;SDS011;24301;54.332;48.386;2022-12-20T12:47:54;18.97;;;11.10;;
38529;SDS011;24301;54.332;48.386;2022-12-20T12:50:36;19.87;;;12.13;;
38529;SDS011;24301;54.332;48.386;2022-12-20T12:53:12;17.23;;;10.57;;
38529;SDS011;24301;54.332;48.386;2022-12-20T12:55:42;25.97;;;13.23;;
38529;SDS011;24301;54.332;48.386;2022-12-20T13:03:42;23.57;;;13.23;;
38529;SDS011;24301;54.332;48.386;2022-12-20T13:08:49;24.30;;;12.67;;
38529;SDS011;24301;54.332;48.386;2022-12-20T13:19:36;16.53;;;10.03;;
38529;SDS011;24301;54.332;48.386;2022-12-20T13:27:36;12.30;;;7.70;;
38529;SDS011;24301;54.332;48.386;2022-12-20T13:40:45;9.45;;;6.18;;
38529;SDS011;24301;54.332;48.386;2022-12-20T13:43:15;11.60;;;5.20;;
38529;SDS011;24301;54.332;48.386;2022-12-20T13:51:18;6.47;;;4.17;;
38529;SDS011;24301;54.332;48.386;2022-12-20T13:53:51;7.30;;;4.97;;
38529;SDS011;24301;54.332;48.386;2022-12-20T13:58:55;6.13;;;3.20;;
38529;SDS011;24301;54.332;48.386;2022-12-20T14:01:23;6.87;;;4.07;;
38529;SDS011;24301;54.332;48.386;2022-12-20T14:03:51;6.80;;;4.00;;
38529;SDS011;24301;54.332;48.386;2022-12-20T14:06:18;9.03;;;4.10;;
38529;SDS011;24301;54.332;48.386;2022-12-20T14:08:47;11.73;;;6.17;;
38529;SDS011;24301;54.332;48.386;2022-12-20T14:11:22;9.00;;;4.73;;
38529;SDS011;24301;54.332;48.386;2022-12-20T14:16:30;9.73;;;4.33;;
38529;SDS011;24301;54.332;48.386;2022-12-20T14:19:00;8.47;;;4.30;;
38529;SDS011;24301;54.332;48.386;2022-12-20T14:21:27;10.50;;;5.97;;
38529;SDS011;24301;54.332;48.386;2022-12-20T14:23:55;9.50;;;4.70;;
38529;SDS011;24301;54.332;48.386;2022-12-20T14:26:26;7.43;;;4.83;;
38529;SDS011;24301;54.332;48.386;2022-12-20T14:28:57;7.00;;;4.23;;
38529;SDS011;24301;54.332;48.386;2022-12-20T14:36:42;8.33;;;4.77;;
38529;SDS011;24301;54.332;48.386;2022-12-20T14:44:27;6.63;;;3.60;;
38529;SDS011;24301;54.332;48.386;2022-12-20T14:47:11;7.80;;;4.13;;
38529;SDS011;24301;54.332;48.386;2022-12-20T14:49:46;6.33;;;3.73;;
38529;SDS011;24301;54.332;48.386;2022-12-20T14:52:15;7.18;;;4.55;;
38529;SDS011;24301;54.332;48.386;2022-12-20T14:54:55;6.60;;;4.63;;
38529;SDS011;24301;54.332;48.386;2022-12-20T15:00:14;9.97;;;5.40;;
38529;SDS011;24301;54.332;48.386;2022-12-20T15:08:11;6.83;;;4.53;;
38529;SDS011;24301;54.332;48.386;2022-12-20T15:13:36;9.03;;;5.73;;
38529;SDS011;24301;54.332;48.386;2022-12-20T15:16:16;11.63;;;5.13;;
38529;SDS011;24301;54.332;48.386;2022-12-20T15:18:45;7.70;;;4.87;;
38529;SDS011;24301;54.332;48.386;2022-12-20T15:21:13;9.40;;;5.20;;
38529;SDS011;24301;54.332;48.386;2022-12-20T15:23:44;9.50;;;6.47;;
38529;SDS011;24301;54.332;48.386;2022-12-20T15:26:28;8.53;;;5.00;;
38529;SDS011;24301;54.332;48.386;2022-12-20T15:29:23;10.10;;;6.17;;
38529;SDS011;24301;54.332;48.386;2022-12-20T15:31:53;9.30;;;5.20;;
38529;SDS011;24301;54.332;48.386;2022-12-20T15:34:57;11.43;;;7.57;;
38529;SDS011;24301;54.332;48.386;2022-12-20T15:37:29;11.50;;;5.80;;
38529;SDS011;24301;54.332;48.386;2022-12-20T15:40:12;9.37;;;5.77;;
38529;SDS011;24301;54.332;48.386;2022-12-20T15:43:07;11.07;;;5.53;;
38529;SDS011;24301;54.332;48.386;2022-12-20T15:46:14;11.07;;;5.97;;
38529;SDS011;24301;54.332;48.386;2022-12-20T15:48:49;13.40;;;7.33;;
38529;SDS011;24301;54.332;48.386;2022-12-20T15:51:17;13.13;;;7.57;;
38529;SDS011;24301;54.332;48.386;2022-12-20T15:54:24;11.03;;;6.90;;
38529;SDS011;24301;54.332;48.386;2022-12-20T15:56:54;15.57;;;9.77;;
38529;SDS011;24301;54.332;48.386;2022-12-20T15:59:21;16.73;;;8.13;;
38529;SDS011;24301;54.332;48.386;2022-12-20T16:01:47;9.40;;;6.87;;
38529;SDS011;24301;54.332;48.386;2022-12-20T16:04:15;12.90;;;7.27;;
38529;SDS011;24301;54.332;48.386;2022-12-20T16:06:44;13.47;;;7.33;;
38529;SDS011;24301;54.332;48.386;2022-12-20T16:09:12;14.30;;;7.43;;
38529;SDS011;24301;54.332;48.386;2022-12-20T16:11:40;19.47;;;8.77;;
38529;SDS011;24301;54.332;48.386;2022-12-20T16:14:14;16.60;;;8.27;;
38529;SDS011;24301;54.332;48.386;2022-12-20T16:16:41;16.23;;;8.37;;
38529;SDS011;24301;54.332;48.386;2022-12-20T16:19:08;21.43;;;9.80;;
38529;SDS011;24301;54.332;48.386;2022-12-20T16:21:40;21.10;;;9.47;;
38529;SDS011;24301;54.332;48.386;2022-12-20T16:34:39;19.27;;;8.60;;
38529;SDS011;24301;54.332;48.386;2022-12-20T16:37:04;21.77;;;10.63;;
38529;SDS011;24301;54.332;48.386;2022-12-20T16:39:30;25.13;;;11.03;;
38529;SDS011;24301;54.332;48.386;2022-12-20T16:41:56;34.23;;;13.37;;
38529;SDS011;24301;54.332;48.386;2022-12-20T16:44:22;23.30;;;10.77;;
38529;SDS011;24301;54.332;48.386;2022-12-20T16:46:48;25.57;;;10.37;;
38529;SDS011;24301;54.332;48.386;2022-12-20T16:49:14;16.20;;;7.60;;
38529;SDS011;24301;54.332;48.386;2022-12-20T16:51:42;10.40;;;5.63;;
38529;SDS011;24301;54.332;48.386;2022-12-20T16:54:13;10.30;;;4.80;;
38529;SDS011;24301;54.332;48.386;2022-12-20T16:56:41;12.87;;;4.80;;
38529;SDS011;24301;54.332;48.386;2022-12-20T16:59:08;8.20;;;4.97;;
38529;SDS011;24301;54.332;48.386;2022-12-20T17:01:35;9.50;;;5.17;;
38529;SDS011;24301;54.332;48.386;2022-12-20T17:04:03;7.30;;;4.30;;
38529;SDS011;24301;54.332;48.386;2022-12-20T17:06:30;6.33;;;4.47;;
38529;SDS011;24301;54.332;48.386;2022-12-20T17:08:57;9.93;;;5.40;;
38529;SDS011;24301;54.332;48.386;2022-12-20T17:11:24;11.03;;;6.73;;
38529;SDS011;24301;54.332;48.386;2022-12-20T17:13:52;12.03;;;6.57;;
38529;SDS011;24301;54.332;48.386;2022-12-20T17:16:20;8.83;;;5.63;;
38529;SDS011;24301;54.332;48.386;2022-12-20T17:18:48;9.83;;;6.80;;
38529;SDS011;24301;54.332;48.386;2022-12-20T17:21:43;13.60;;;6.47;;